Time;durP1;ratioP1;P1;durP2;ratioP2;P2;SDS_P1;SDS_P2;PMS_P1;PMS_P2;Temp;Humidity;BMP_temperature;BMP_pressure;BME280_temperature;BME280_humidity;BME280_pressure;Samples;Min_cycle;Max_cycle;Signal;HPM_P1;HPM_P2
2021/12/29 00:00:44;;;;;;;583.75;94.38;;;5.60;99.90;;;;;;5049988;28;20408;-75
2021/12/29 00:03:10;;;;;;;608.00;99.17;;;5.60;99.90;;;;;;5032439;28;20395;-75
2021/12/29 00:05:36;;;;;;;449.37;86.20;;;5.60;99.90;;;;;;5032595;28;20448;-75
2021/12/29 00:08:02;;;;;;;542.43;91.57;;;5.60;99.90;;;;;;5048300;28;20439;-75
2021/12/29 00:10:29;;;;;;;547.00;96.40;;;5.60;99.90;;;;;;5049011;28;20476;-75
2021/12/29 00:12:56;;;;;;;568.92;99.32;;;5.60;99.90;;;;;;5050044;28;20419;-75
2021/12/29 00:15:28;;;;;;;911.30;122.93;;;5.60;99.90;;;;;;5060879;28;20808;-75
2021/12/29 00:17:55;;;;;;;1011.20;132.32;;;5.60;99.90;;;;;;5069894;28;20420;-75
2021/12/29 00:20:28;;;;;;;696.65;105.53;;;5.70;99.90;;;;;;5069380;28;20414;-75
2021/12/29 00:23:01;;;;;;;550.10;88.13;;;5.60;99.90;;;;;;5087545;28;20406;-75
2021/12/29 00:25:27;;;;;;;487.08;79.75;;;5.70;99.90;;;;;;5069335;28;20414;-75
2021/12/29 00:27:55;;;;;;;510.98;87.72;;;5.60;99.90;;;;;;5069955;28;20445;-75
2021/12/29 00:30:21;;;;;;;572.47;93.10;;;5.60;99.90;;;;;;5069666;28;20402;-75
2021/12/29 00:32:47;;;;;;;584.63;88.80;;;5.60;99.90;;;;;;5069310;28;20409;-75
2021/12/29 00:35:14;;;;;;;549.00;93.55;;;5.60;99.90;;;;;;5069119;28;20811;-75
2021/12/29 00:37:41;;;;;;;682.73;104.37;;;5.70;99.90;;;;;;5068845;28;20410;-75
2021/12/29 00:40:09;;;;;;;542.10;89.80;;;5.60;99.90;;;;;;5069619;28;20425;-75
2021/12/29 00:42:34;;;;;;;428.65;78.57;;;5.60;99.90;;;;;;5069631;28;20763;-75
2021/12/29 00:45:00;;;;;;;725.47;106.30;;;5.60;99.90;;;;;;5069785;28;20402;-75
2021/12/29 00:47:29;;;;;;;349.67;70.03;;;5.70;99.90;;;;;;5071484;28;20912;-75
2021/12/29 00:49:56;;;;;;;260.43;58.60;;;5.70;99.90;;;;;;5091349;28;20432;-75
2021/12/29 00:52:21;;;;;;;335.17;66.32;;;5.70;99.90;;;;;;5090723;28;20398;-75
2021/12/29 00:54:47;;;;;;;315.88;65.55;;;5.80;99.90;;;;;;5073070;28;20402;-75
2021/12/29 00:57:13;;;;;;;223.73;55.77;;;5.80;99.90;;;;;;5090905;28;20398;-75
2021/12/29 00:59:38;;;;;;;312.30;63.67;;;5.80;99.90;;;;;;5091223;28;20402;-75
2021/12/29 01:02:05;;;;;;;156.73;46.37;;;5.90;99.90;;;;;;5072843;28;20413;-75
2021/12/29 01:04:30;;;;;;;251.18;57.80;;;5.90;99.90;;;;;;5091046;28;20406;-75
2021/12/29 01:06:56;;;;;;;204.77;52.67;;;5.90;99.90;;;;;;5072829;28;20466;-75
2021/12/29 01:09:22;;;;;;;314.10;58.83;;;5.90;99.90;;;;;;5090610;28;20406;-75
2021/12/29 01:11:48;;;;;;;395.77;65.07;;;5.90;99.90;;;;;;5091141;28;20393;-75
2021/12/29 01:14:13;;;;;;;208.93;50.05;;;5.90;99.90;;;;;;5070142;28;20471;-75
2021/12/29 01:16:39;;;;;;;256.88;54.45;;;5.90;99.90;;;;;;5052645;28;20440;-76
2021/12/29 01:19:11;;;;;;;389.83;63.07;;;5.90;99.90;;;;;;5052442;28;20418;-75
2021/12/29 01:21:39;;;;;;;175.43;44.42;;;5.90;99.90;;;;;;5070689;28;20425;-75
2021/12/29 01:24:06;;;;;;;148.90;40.40;;;5.90;99.90;;;;;;5070181;28;20486;-75
2021/12/29 01:26:32;;;;;;;207.80;48.53;;;5.90;99.90;;;;;;5052396;28;20842;-75
2021/12/29 01:28:58;;;;;;;178.85;43.97;;;5.90;99.90;;;;;;5052236;28;20833;-75
2021/12/29 01:31:24;;;;;;;170.30;42.03;;;5.90;99.90;;;;;;5052542;28;20440;-75
2021/12/29 01:33:49;;;;;;;131.23;38.07;;;5.90;99.90;;;;;;5052402;28;20510;-75
2021/12/29 01:36:15;;;;;;;88.38;32.00;;;5.90;99.90;;;;;;5069934;28;20449;-75
2021/12/29 01:38:41;;;;;;;105.88;34.05;;;5.90;99.90;;;;;;5051876;28;20487;-75
2021/12/29 01:41:07;;;;;;;196.93;43.97;;;5.90;99.90;;;;;;5035359;28;20803;-75
2021/12/29 01:43:32;;;;;;;196.35;44.00;;;5.90;99.90;;;;;;5051995;28;20408;-75
2021/12/29 01:45:58;;;;;;;168.73;39.17;;;5.90;99.90;;;;;;5052318;28;20408;-75
2021/12/29 01:48:24;;;;;;;404.97;55.97;;;5.90;99.90;;;;;;5051873;28;20521;-75
2021/12/29 01:50:51;;;;;;;184.32;40.38;;;5.90;99.90;;;;;;5051611;28;20403;-75
2021/12/29 01:53:24;;;;;;;188.75;42.03;;;5.90;99.90;;;;;;5052069;28;20506;-75
2021/12/29 01:55:51;;;;;;;120.32;36.10;;;5.90;99.90;;;;;;5051690;28;20937;-75
2021/12/29 01:58:18;;;;;;;145.07;38.38;;;5.90;99.90;;;;;;5051126;28;20477;-75
2021/12/29 02:00:44;;;;;;;225.05;45.50;;;5.90;99.90;;;;;;5051964;28;20418;-75
2021/12/29 02:03:10;;;;;;;120.00;33.47;;;5.90;99.90;;;;;;5051300;28;20407;-75
2021/12/29 02:05:41;;;;;;;165.77;38.17;;;6.00;99.90;;;;;;5052174;28;20495;-75
2021/12/29 02:08:07;;;;;;;151.43;35.95;;;6.00;99.90;;;;;;5069466;28;20419;-75
2021/12/29 02:10:41;;;;;;;165.20;36.63;;;6.00;99.90;;;;;;5056301;28;20415;-75
2021/12/29 02:13:08;;;;;;;191.85;38.67;;;6.00;99.90;;;;;;5051270;28;20817;-75
2021/12/29 02:15:34;;;;;;;184.17;38.90;;;6.00;99.90;;;;;;5069526;28;20471;-75
2021/12/29 02:17:59;;;;;;;158.40;35.63;;;5.90;99.90;;;;;;5055837;28;20405;-75
2021/12/29 02:20:26;;;;;;;239.48;40.28;;;6.00;99.90;;;;;;5089264;28;20788;-75
2021/12/29 02:23:11;;;;;;;154.65;30.92;;;6.00;99.90;;;;;;5071846;28;20780;-75
2021/12/29 02:25:47;;;;;;;180.63;31.38;;;6.00;99.90;;;;;;5071211;28;20397;-75
2021/12/29 02:28:13;;;;;;;149.60;28.55;;;6.00;99.90;;;;;;5070825;28;20897;-75
2021/12/29 02:30:39;;;;;;;149.68;27.98;;;6.00;99.90;;;;;;5071273;28;20968;-75
2021/12/29 02:33:06;;;;;;;189.52;30.70;;;6.00;99.90;;;;;;5071229;28;20409;-75
2021/12/29 02:35:32;;;;;;;137.98;26.00;;;6.00;99.90;;;;;;5071127;28;20879;-75
2021/12/29 02:38:00;;;;;;;119.07;24.45;;;6.00;99.90;;;;;;5054719;28;20398;-75
2021/12/29 02:40:26;;;;;;;138.60;26.15;;;6.00;99.90;;;;;;5070566;28;20918;-75
2021/12/29 02:42:52;;;;;;;146.73;26.85;;;5.90;99.90;;;;;;5071176;28;20408;-75
2021/12/29 02:45:22;;;;;;;102.22;22.25;;;6.00;99.90;;;;;;5070831;28;20406;-75
2021/12/29 02:47:48;;;;;;;100.05;22.45;;;6.00;99.90;;;;;;5089086;28;20410;-75
2021/12/29 02:50:15;;;;;;;173.50;27.38;;;6.00;99.90;;;;;;5088746;28;20402;-75
2021/12/29 02:52:43;;;;;;;153.65;25.95;;;6.00;99.90;;;;;;5070824;28;20480;-75
2021/12/29 02:55:09;;;;;;;158.18;26.85;;;6.00;99.90;;;;;;5088489;28;20429;-75
2021/12/29 02:57:34;;;;;;;190.75;31.00;;;6.00;99.90;;;;;;5089164;28;20398;-76
2021/12/29 03:00:00;;;;;;;195.33;31.67;;;6.00;99.90;;;;;;5070238;28;20974;-75
2021/12/29 03:02:25;;;;;;;175.45;32.33;;;6.00;99.90;;;;;;5070929;28;20406;-75
2021/12/29 03:04:52;;;;;;;203.60;35.33;;;6.10;99.90;;;;;;5070525;28;20417;-75
2021/12/29 03:07:18;;;;;;;215.13;35.63;;;6.10;99.90;;;;;;5070491;28;20414;-75
2021/12/29 03:09:43;;;;;;;204.38;35.67;;;6.20;99.90;;;;;;5070672;28;20769;-75
2021/12/29 03:12:09;;;;;;;242.47;38.93;;;6.10;99.90;;;;;;5070282;28;20417;-75
2021/12/29 03:14:35;;;;;;;224.23;37.87;;;6.20;99.90;;;;;;5070793;28;20880;-75
2021/12/29 03:17:00;;;;;;;235.18;38.47;;;6.20;99.90;;;;;;5069902;28;20442;-75
2021/12/29 03:19:26;;;;;;;172.47;35.27;;;6.20;99.90;;;;;;5069217;28;20402;-75
2021/12/29 03:21:52;;;;;;;226.77;38.17;;;6.20;99.90;;;;;;5050660;28;20408;-76
2021/12/29 03:24:20;;;;;;;206.10;37.50;;;6.20;99.90;;;;;;5050322;28;20476;-75
2021/12/29 03:26:46;;;;;;;238.17;38.67;;;6.20;99.90;;;;;;5050280;28;20422;-75
2021/12/29 03:29:11;;;;;;;248.20;40.07;;;6.20;99.90;;;;;;5050039;28;20407;-75
2021/12/29 03:31:39;;;;;;;293.00;42.83;;;6.30;99.90;;;;;;5050582;28;20942;-75
2021/12/29 03:34:05;;;;;;;257.15;40.70;;;6.30;99.90;;;;;;5050196;28;20849;-75
2021/12/29 03:36:31;;;;;;;288.07;43.27;;;6.30;99.90;;;;;;5050309;28;20431;-75
2021/12/29 03:38:57;;;;;;;259.87;42.10;;;6.30;99.90;;;;;;5033566;28;20411;-75
2021/12/29 03:41:24;;;;;;;233.13;40.47;;;6.30;99.90;;;;;;5067699;28;20502;-75
2021/12/29 03:43:50;;;;;;;314.90;45.35;;;6.30;99.90;;;;;;5050196;28;20502;-76
2021/12/29 03:46:16;;;;;;;259.52;43.75;;;6.30;99.90;;;;;;5033196;28;20479;-76
2021/12/29 03:48:44;;;;;;;287.25;45.00;;;6.30;99.90;;;;;;5049953;28;20465;-75
2021/12/29 03:51:10;;;;;;;290.35;44.90;;;6.30;99.90;;;;;;5067706;28;20496;-75
2021/12/29 03:53:36;;;;;;;250.40;43.22;;;6.30;99.90;;;;;;5033626;28;20482;-75
2021/12/29 03:56:02;;;;;;;233.20;42.55;;;6.30;99.90;;;;;;5049970;28;20869;-75
2021/12/29 03:58:29;;;;;;;211.15;41.25;;;6.30;99.90;;;;;;5067952;28;20518;-75
2021/12/29 04:00:58;;;;;;;238.57;42.85;;;6.30;99.90;;;;;;5050217;28;20823;-75
2021/12/29 04:03:24;;;;;;;228.80;42.08;;;6.30;99.90;;;;;;5049566;28;20612;-75
2021/12/29 04:05:50;;;;;;;198.93;39.73;;;6.40;99.90;;;;;;5050006;28;21076;-75
2021/12/29 04:08:16;;;;;;;217.10;41.63;;;6.30;99.90;;;;;;5049529;28;20419;-76
2021/12/29 04:10:42;;;;;;;269.80;44.40;;;6.30;99.90;;;;;;5049925;28;20447;-75
2021/12/29 04:13:07;;;;;;;219.48;41.13;;;6.40;99.90;;;;;;5049672;28;20436;-75
2021/12/29 04:15:34;;;;;;;234.77;42.17;;;6.30;99.90;;;;;;5049846;28;20442;-76
2021/12/29 04:18:03;;;;;;;284.48;45.05;;;6.40;99.90;;;;;;5039809;28;20784;-76
2021/12/29 04:23:16;;;;;;;356.60;47.00;;;6.40;99.90;;;;;;5072554;28;20837;-75
2021/12/29 04:25:46;;;;;;;279.13;43.47;;;6.40;99.90;;;;;;5091430;28;20408;-76
2021/12/29 04:28:20;;;;;;;252.45;42.38;;;6.40;99.90;;;;;;5091132;28;20416;-75
2021/12/29 04:31:07;;;;;;;354.92;49.30;;;6.40;99.90;;;;;;5091160;28;20434;-75
2021/12/29 04:33:34;;;;;;;298.88;45.42;;;6.40;99.90;;;;;;5072957;28;20900;-75
2021/12/29 04:36:00;;;;;;;386.63;50.10;;;6.40;99.90;;;;;;5056332;28;20449;-75
2021/12/29 04:38:26;;;;;;;334.77;48.33;;;6.40;99.90;;;;;;5091484;28;20401;-76
2021/12/29 04:40:55;;;;;;;306.58;47.03;;;6.40;99.90;;;;;;5073298;28;20935;-75
2021/12/29 04:43:21;;;;;;;295.77;47.03;;;6.40;99.90;;;;;;5073364;28;20445;-75
2021/12/29 04:45:47;;;;;;;268.27;45.07;;;6.40;99.90;;;;;;5073484;28;20405;-75
2021/12/29 04:48:14;;;;;;;275.45;45.17;;;6.40;99.90;;;;;;5073088;28;20417;-75
2021/12/29 04:51:05;;;;;;;328.05;47.42;;;6.40;99.90;;;;;;5073024;28;20410;-75
2021/12/29 04:53:32;;;;;;;327.20;48.57;;;6.50;99.90;;;;;;5073161;28;20539;-75
2021/12/29 04:55:58;;;;;;;433.80;53.15;;;6.50;99.90;;;;;;5056476;28;20459;-75
2021/12/29 04:58:23;;;;;;;492.38;56.80;;;6.50;99.90;;;;;;5091191;28;20492;-75
2021/12/29 05:00:51;;;;;;;490.63;54.97;;;6.50;99.90;;;;;;5073110;28;20490;-75
2021/12/29 05:03:17;;;;;;;507.37;57.67;;;6.40;99.90;;;;;;5055599;28;20421;-75
2021/12/29 05:08:24;;;;;;;492.17;57.28;;;6.40;99.90;;;;;;5072942;28;20395;-75
2021/12/29 05:08:43;;;;;;;464.90;54.70;;;6.40;99.90;;;;;;5090610;28;20471;-76
2021/12/29 05:11:15;;;;;;;409.30;48.90;;;6.40;99.90;;;;;;5055770;28;20402;-75
2021/12/29 05:13:43;;;;;;;536.63;56.25;;;6.40;99.90;;;;;;5056010;28;20486;-76
2021/12/29 05:16:10;;;;;;;441.60;52.77;;;6.40;99.90;;;;;;5055932;28;20430;-75
2021/12/29 05:18:37;;;;;;;452.15;51.70;;;6.40;99.90;;;;;;5060521;28;20419;-76
2021/12/29 05:21:05;;;;;;;546.25;57.47;;;6.30;99.90;;;;;;5052897;28;20484;-76
2021/12/29 05:23:31;;;;;;;418.77;50.20;;;6.40;99.90;;;;;;5052212;28;20408;-76
2021/12/29 05:25:57;;;;;;;432.15;49.90;;;6.30;99.90;;;;;;5052839;28;20955;-76
2021/12/29 05:28:24;;;;;;;488.70;53.90;;;6.30;99.90;;;;;;5052236;28;20450;-76
2021/12/29 05:30:51;;;;;;;444.13;51.05;;;6.30;99.90;;;;;;5052729;28;20414;-76
2021/12/29 05:33:17;;;;;;;437.77;50.38;;;6.40;99.90;;;;;;5068809;28;20530;-76
2021/12/29 05:35:43;;;;;;;547.67;56.90;;;6.40;99.90;;;;;;5052307;28;20522;-76
2021/12/29 05:38:09;;;;;;;424.05;51.40;;;6.40;99.90;;;;;;5069937;28;20989;-75
2021/12/29 05:40:35;;;;;;;574.38;58.45;;;6.40;99.90;;;;;;5052167;28;20416;-76
2021/12/29 05:43:01;;;;;;;425.17;49.25;;;6.40;99.90;;;;;;5052359;28;20498;-76
2021/12/29 05:45:27;;;;;;;427.77;49.60;;;6.40;99.90;;;;;;5051963;28;20490;-76
2021/12/29 05:47:58;;;;;;;467.58;52.67;;;6.40;99.90;;;;;;5052007;28;20928;-75
2021/12/29 05:50:26;;;;;;;429.38;48.80;;;6.40;99.90;;;;;;5052052;28;20411;-76
2021/12/29 05:52:53;;;;;;;425.50;47.72;;;6.40;99.90;;;;;;5035238;28;20422;-76
2021/12/29 05:55:19;;;;;;;494.65;52.10;;;6.40;99.90;;;;;;5051643;28;20504;-76
2021/12/29 05:57:45;;;;;;;494.48;54.63;;;6.40;99.90;;;;;;5052008;28;20415;-76
2021/12/29 06:00:15;;;;;;;550.53;58.65;;;6.40;99.90;;;;;;5069510;28;20399;-76
2021/12/29 06:02:41;;;;;;;472.05;53.13;;;6.40;99.90;;;;;;5051511;28;20407;-76
2021/12/29 06:05:07;;;;;;;589.97;59.65;;;6.50;99.90;;;;;;5050965;28;20487;-76
2021/12/29 06:07:34;;;;;;;556.10;57.15;;;6.50;99.90;;;;;;5034952;28;20424;-75
2021/12/29 06:10:00;;;;;;;636.45;63.63;;;6.50;99.90;;;;;;5051657;28;20412;-75
2021/12/29 06:12:25;;;;;;;402.63;49.33;;;6.50;99.90;;;;;;5035290;28;20506;-76
2021/12/29 06:14:51;;;;;;;433.77;51.28;;;6.50;99.90;;;;;;5051390;28;20941;-76
2021/12/29 06:17:17;;;;;;;397.93;48.80;;;6.50;99.90;;;;;;5052320;28;20410;-76
2021/12/29 06:19:43;;;;;;;510.67;57.37;;;6.50;99.90;;;;;;5071851;28;20406;-76
2021/12/29 06:22:10;;;;;;;472.10;54.27;;;6.60;99.90;;;;;;5089542;28;20412;-76
2021/12/29 06:24:37;;;;;;;393.67;49.90;;;6.60;99.90;;;;;;5089958;28;20822;-75
2021/12/29 06:27:04;;;;;;;485.23;55.40;;;6.60;99.90;;;;;;5071578;28;20441;-76
2021/12/29 06:29:29;;;;;;;504.95;57.70;;;6.60;99.90;;;;;;5070919;28;20900;-76
2021/12/29 06:31:55;;;;;;;407.48;51.50;;;6.60;99.90;;;;;;5089564;28;20408;-76
2021/12/29 06:34:21;;;;;;;468.27;53.90;;;6.60;99.90;;;;;;5054665;28;20410;-76
2021/12/29 06:36:46;;;;;;;475.52;53.83;;;6.60;99.90;;;;;;5054669;28;20430;-76
2021/12/29 06:39:12;;;;;;;488.07;56.23;;;6.60;99.90;;;;;;5088811;28;20532;-76
2021/12/29 06:41:38;;;;;;;484.90;54.40;;;6.60;99.90;;;;;;5054310;28;20413;-76
2021/12/29 06:44:04;;;;;;;460.90;53.90;;;6.60;99.90;;;;;;5070973;28;20417;-76
2021/12/29 06:46:30;;;;;;;452.67;53.00;;;6.60;99.90;;;;;;5088553;28;20441;-76
2021/12/29 06:48:55;;;;;;;606.30;63.33;;;6.60;99.90;;;;;;5088778;28;20434;-76
2021/12/29 06:51:21;;;;;;;409.13;49.78;;;6.60;99.90;;;;;;5083024;28;20410;-76
2021/12/29 06:53:47;;;;;;;396.92;49.58;;;6.60;99.90;;;;;;5053399;28;20964;-75
2021/12/29 06:56:12;;;;;;;563.67;58.30;;;6.60;99.90;;;;;;5050117;28;20487;-76
2021/12/29 06:58:38;;;;;;;461.37;53.50;;;6.60;99.90;;;;;;5079313;28;20841;-76
2021/12/29 07:01:04;;;;;;;478.60;53.53;;;6.60;99.90;;;;;;5088913;28;20437;-73
2021/12/29 07:03:30;;;;;;;734.87;69.60;;;6.60;99.90;;;;;;5071444;28;20897;-73
2021/12/29 07:05:56;;;;;;;476.60;50.87;;;6.60;99.90;;;;;;5068730;28;20460;-74
2021/12/29 07:08:22;;;;;;;405.73;47.25;;;6.60;99.90;;;;;;5068170;28;20435;-75
2021/12/29 07:10:49;;;;;;;734.73;68.47;;;6.60;99.90;;;;;;5060025;28;20899;-76
2021/12/29 07:13:14;;;;;;;522.53;52.92;;;6.60;99.90;;;;;;5069654;28;20426;-76
2021/12/29 07:15:40;;;;;;;460.53;49.37;;;6.50;99.90;;;;;;5050448;28;20440;-76
2021/12/29 07:18:05;;;;;;;424.50;47.50;;;6.50;99.90;;;;;;5062428;28;20778;-76
2021/12/29 07:20:31;;;;;;;582.55;55.08;;;6.50;99.90;;;;;;5066852;28;20490;-76
2021/12/29 07:22:57;;;;;;;480.47;50.40;;;6.50;99.90;;;;;;5069385;28;20402;-76
2021/12/29 07:25:24;;;;;;;482.43;48.30;;;6.50;99.90;;;;;;5069755;28;20414;-75
2021/12/29 07:27:54;;;;;;;576.90;55.50;;;6.50;99.90;;;;;;5064962;28;20423;-75
2021/12/29 07:30:20;;;;;;;462.70;49.40;;;6.60;99.90;;;;;;5087469;28;20528;-75
2021/12/29 07:32:46;;;;;;;567.22;53.28;;;6.50;99.90;;;;;;5088479;28;20413;-75
2021/12/29 07:35:12;;;;;;;569.73;53.73;;;6.60;99.90;;;;;;5088399;28;20402;-75
2021/12/29 07:37:37;;;;;;;420.58;44.85;;;6.60;99.90;;;;;;5069675;28;20406;-74
2021/12/29 07:40:07;;;;;;;564.20;51.55;;;6.60;99.90;;;;;;5087381;28;20884;-75
2021/12/29 07:42:35;;;;;;;536.20;52.47;;;6.60;99.90;;;;;;5087693;28;20433;-75
2021/12/29 07:45:01;;;;;;;564.13;55.28;;;6.60;99.90;;;;;;5069705;28;20911;-75
2021/12/29 07:47:26;;;;;;;716.78;62.15;;;6.60;99.90;;;;;;5087897;28;20438;-75
2021/12/29 07:49:52;;;;;;;534.75;49.92;;;6.60;99.90;;;;;;5087452;28;20438;-75
2021/12/29 07:52:18;;;;;;;702.10;57.35;;;6.60;99.90;;;;;;5067258;28;20414;-75
2021/12/29 07:54:43;;;;;;;552.60;56.27;;;6.60;99.90;;;;;;5087686;28;20405;-75
2021/12/29 07:57:09;;;;;;;635.53;63.95;;;6.50;99.90;;;;;;5088688;28;20777;-75
2021/12/29 07:59:34;;;;;;;559.13;59.07;;;6.50;99.90;;;;;;5044394;28;20498;-75
2021/12/29 08:02:01;;;;;;;696.50;66.00;;;6.60;99.90;;;;;;5078037;28;20467;-77
2021/12/29 08:04:26;;;;;;;441.80;54.87;;;6.60;99.90;;;;;;5056930;28;20527;-75
2021/12/29 08:06:52;;;;;;;524.93;60.33;;;6.60;99.90;;;;;;5090358;28;20414;-75
2021/12/29 08:09:18;;;;;;;770.72;74.38;;;6.60;99.90;;;;;;5073257;28;20485;-75
2021/12/29 08:11:44;;;;;;;478.65;54.17;;;6.60;99.90;;;;;;5064145;28;20424;-75
2021/12/29 08:14:10;;;;;;;638.50;56.43;;;6.60;99.90;;;;;;5053844;28;20418;-75
2021/12/29 08:16:36;;;;;;;835.67;71.25;;;6.60;99.90;;;;;;5070502;28;20426;-75
2021/12/29 08:19:02;;;;;;;542.90;55.70;;;6.60;99.90;;;;;;5075778;28;20408;-75
2021/12/29 08:21:27;;;;;;;802.13;74.03;;;6.60;99.90;;;;;;5053993;28;20974;-75
2021/12/29 08:23:53;;;;;;;571.67;62.57;;;6.50;99.90;;;;;;5053993;28;20415;-75
2021/12/29 08:26:20;;;;;;;693.90;61.45;;;6.50;99.90;;;;;;5054091;28;20411;-75
2021/12/29 08:28:46;;;;;;;766.53;75.72;;;6.60;99.90;;;;;;5087856;28;20485;-75
2021/12/29 08:31:12;;;;;;;603.10;55.85;;;6.50;99.90;;;;;;5073967;28;20484;-75
2021/12/29 08:33:38;;;;;;;641.92;67.78;;;6.60;99.90;;;;;;5073100;28;20414;-75
2021/12/29 08:36:06;;;;;;;838.40;75.68;;;6.60;99.90;;;;;;5072699;28;20479;-75
2021/12/29 08:38:32;;;;;;;762.40;70.50;;;6.60;99.90;;;;;;5062739;28;20441;-75
2021/12/29 08:40:58;;;;;;;622.27;63.93;;;6.50;99.90;;;;;;5090626;28;20453;-75
2021/12/29 08:43:24;;;;;;;815.20;79.10;;;6.60;99.90;;;;;;5091485;28;20442;-75
2021/12/29 08:45:49;;;;;;;827.30;77.95;;;6.50;99.90;;;;;;5056109;28;20509;-75
2021/12/29 08:48:15;;;;;;;692.17;71.90;;;6.60;99.90;;;;;;5090721;28;20763;-75
2021/12/29 08:50:41;;;;;;;690.30;75.17;;;6.60;99.90;;;;;;5090681;28;20410;-75
2021/12/29 08:53:08;;;;;;;683.63;74.95;;;6.50;99.90;;;;;;5090650;28;20402;-75
2021/12/29 08:55:36;;;;;;;521.92;62.47;;;6.60;99.90;;;;;;5090004;28;20421;-75
2021/12/29 08:58:06;;;;;;;737.87;78.70;;;6.60;99.90;;;;;;5088898;28;20410;-75
2021/12/29 09:00:32;;;;;;;929.75;91.45;;;6.60;99.90;;;;;;5090398;28;20495;-75
2021/12/29 09:02:57;;;;;;;789.65;82.85;;;6.60;99.90;;;;;;5072473;28;20410;-75
2021/12/29 09:05:23;;;;;;;712.58;71.20;;;6.60;99.90;;;;;;5091032;28;20417;-74
2021/12/29 09:07:49;;;;;;;772.37;79.77;;;6.60;99.90;;;;;;5072202;28;20414;-75
2021/12/29 09:10:17;;;;;;;491.45;65.03;;;6.70;99.90;;;;;;5089801;28;20547;-75
2021/12/29 09:12:43;;;;;;;761.88;79.80;;;6.70;99.90;;;;;;5072781;28;20422;-75
2021/12/29 09:15:09;;;;;;;753.27;76.23;;;6.70;99.90;;;;;;5072150;28;20530;-75
2021/12/29 09:17:35;;;;;;;727.95;80.70;;;6.70;99.90;;;;;;5072202;28;20871;-75
2021/12/29 09:20:02;;;;;;;537.20;68.23;;;6.80;99.90;;;;;;5071989;28;20493;-75
2021/12/29 09:22:28;;;;;;;469.03;66.60;;;6.80;99.90;;;;;;5072285;28;20494;-75
2021/12/29 09:24:53;;;;;;;583.03;70.40;;;6.80;99.90;;;;;;5089986;28;20460;-75
2021/12/29 09:27:19;;;;;;;561.80;67.57;;;6.90;99.90;;;;;;5072533;28;20459;-75
2021/12/29 09:29:45;;;;;;;665.92;77.55;;;6.90;99.90;;;;;;5089623;28;20417;-75
2021/12/29 09:32:11;;;;;;;576.07;70.50;;;6.90;99.90;;;;;;5071384;28;20563;-75
2021/12/29 09:34:37;;;;;;;770.30;81.07;;;6.90;99.90;;;;;;5055608;28;20444;-75
2021/12/29 09:37:05;;;;;;;744.08;80.22;;;7.00;99.90;;;;;;5071177;28;20537;-74
2021/12/29 09:39:32;;;;;;;522.35;64.75;;;7.00;99.90;;;;;;5071557;28;20784;-75
2021/12/29 09:41:58;;;;;;;717.07;73.73;;;7.00;99.90;;;;;;5055049;28;20474;-75
2021/12/29 09:44:24;;;;;;;623.47;67.73;;;7.10;99.90;;;;;;5071902;28;20493;-75
2021/12/29 09:46:51;;;;;;;593.58;72.10;;;7.10;99.90;;;;;;5055054;28;20409;-75
2021/12/29 09:49:18;;;;;;;537.00;62.50;;;7.10;99.90;;;;;;5071311;28;21008;-73
2021/12/29 09:51:44;;;;;;;614.00;67.80;;;7.20;99.90;;;;;;5089645;28;20405;-74
2021/12/29 09:54:10;;;;;;;595.35;67.82;;;7.20;99.90;;;;;;5071367;28;20406;-74
2021/12/29 09:56:36;;;;;;;680.45;69.10;;;7.20;99.90;;;;;;5088368;28;20437;-75
2021/12/29 09:59:03;;;;;;;785.22;75.72;;;7.20;99.90;;;;;;5071737;28;20409;-75
2021/12/29 10:01:28;;;;;;;874.00;81.83;;;7.20;99.90;;;;;;5071020;28;20475;-75
2021/12/29 10:03:54;;;;;;;822.50;77.23;;;7.20;99.90;;;;;;5071919;28;20410;-75
2021/12/29 10:06:20;;;;;;;731.75;72.93;;;7.20;99.90;;;;;;5071197;28;20915;-75
2021/12/29 10:08:47;;;;;;;782.03;79.20;;;7.20;99.90;;;;;;5071585;28;20505;-75
2021/12/29 10:11:15;;;;;;;601.55;64.40;;;7.20;99.90;;;;;;5071307;28;20839;-75
2021/12/29 10:13:43;;;;;;;696.80;70.05;;;7.20;99.90;;;;;;5071294;28;20416;-75
2021/12/29 10:16:24;;;;;;;697.50;71.75;;;7.20;99.90;;;;;;5070387;28;20434;-75
2021/12/29 10:18:54;;;;;;;610.47;68.45;;;7.20;99.90;;;;;;5040782;28;20972;-75
2021/12/29 10:21:22;;;;;;;455.42;59.28;;;7.20;99.90;;;;;;5069709;28;20414;-75
2021/12/29 10:23:50;;;;;;;527.67;65.05;;;7.20;99.90;;;;;;5070254;28;20518;-75
2021/12/29 10:26:28;;;;;;;484.90;67.15;;;7.20;99.90;;;;;;5070170;28;20764;-75
2021/12/29 10:29:01;;;;;;;323.80;60.75;;;7.20;99.90;;;;;;5084425;28;20415;-75
2021/12/29 10:31:42;;;;;;;488.98;68.47;;;7.20;99.90;;;;;;5070984;28;20792;-75
2021/12/29 10:34:11;;;;;;;408.45;64.68;;;7.20;99.90;;;;;;5088634;28;20488;-75
2021/12/29 10:36:41;;;;;;;545.13;73.53;;;7.20;99.90;;;;;;5070289;28;20457;-75
2021/12/29 10:39:20;;;;;;;402.95;60.92;;;7.20;99.90;;;;;;5070956;28;20875;-75
2021/12/29 10:42:06;;;;;;;537.03;71.15;;;7.20;99.90;;;;;;5070365;28;20418;-75
2021/12/29 10:44:43;;;;;;;449.27;63.28;;;7.30;99.90;;;;;;5054357;28;20498;-75
2021/12/29 10:47:42;;;;;;;509.80;63.15;;;7.30;99.90;;;;;;5070845;28;20482;-75
2021/12/29 10:50:11;;;;;;;484.00;63.13;;;7.30;99.90;;;;;;5046662;28;20421;-75
2021/12/29 10:52:51;;;;;;;599.55;69.80;;;7.40;99.90;;;;;;5069614;28;20406;-76
2021/12/29 10:55:20;;;;;;;467.50;58.50;;;7.40;99.90;;;;;;5087420;28;22304;-76
2021/12/29 10:58:08;;;;;;;561.75;61.13;;;7.50;99.90;;;;;;5069719;28;20406;-75
2021/12/29 11:00:38;;;;;;;545.05;63.80;;;7.50;99.90;;;;;;5084081;28;20483;-76
2021/12/29 11:03:19;;;;;;;492.65;57.42;;;7.60;99.90;;;;;;5048466;28;20436;-76
2021/12/29 11:05:47;;;;;;;614.00;66.60;;;7.60;99.90;;;;;;5070571;28;20406;-76
2021/12/29 11:08:14;;;;;;;535.97;62.13;;;7.60;99.90;;;;;;5088168;28;20414;-76
2021/12/29 11:10:41;;;;;;;409.77;53.10;;;7.60;99.90;;;;;;5088043;28;20497;-76
2021/12/29 11:13:09;;;;;;;478.52;60.22;;;7.70;99.90;;;;;;5070568;28;20398;-76
2021/12/29 11:15:41;;;;;;;462.75;56.08;;;7.70;99.90;;;;;;5065131;28;20453;-76
2021/12/29 11:18:12;;;;;;;589.47;60.65;;;7.70;99.90;;;;;;5042794;28;20044;-76
2021/12/29 11:20:39;;;;;;;513.00;52.80;;;7.80;99.90;;;;;;5089988;28;20521;-76
2021/12/29 11:23:13;;;;;;;424.10;46.65;;;7.80;99.90;;;;;;5071396;28;20048;-76
2021/12/29 11:25:41;;;;;;;297.55;37.95;;;7.90;99.90;;;;;;5089593;28;20044;-76
2021/12/29 11:28:18;;;;;;;414.98;45.78;;;7.80;99.90;;;;;;5090228;28;20451;-76
2021/12/29 11:30:44;;;;;;;312.63;39.85;;;7.90;99.90;;;;;;5089448;28;20047;-76
2021/12/29 11:33:11;;;;;;;232.95;33.58;;;7.80;99.90;;;;;;5071872;28;20047;-76
2021/12/29 11:35:47;;;;;;;169.65;29.20;;;7.90;99.90;;;;;;5089904;28;20044;-76
2021/12/29 11:38:13;;;;;;;192.60;32.30;;;7.90;99.90;;;;;;5087267;28;20052;-76
2021/12/29 11:40:45;;;;;;;187.82;31.42;;;7.90;99.90;;;;;;5088087;28;20409;-76
2021/12/29 11:43:12;;;;;;;156.18;28.13;;;7.90;99.90;;;;;;5070286;28;20043;-76
2021/12/29 11:45:39;;;;;;;105.55;24.40;;;7.90;99.90;;;;;;5088128;28;20513;-76
2021/12/29 11:48:06;;;;;;;100.65;25.00;;;7.90;99.90;;;;;;5069781;28;20047;-76
2021/12/29 11:50:35;;;;;;;102.20;22.52;;;7.90;99.90;;;;;;5069764;28;20119;-76
2021/12/29 11:53:34;;;;;;;110.63;23.50;;;7.90;99.90;;;;;;5089306;28;20074;-75
2021/12/29 11:56:04;;;;;;;95.85;21.50;;;7.90;99.90;;;;;;5089214;28;20126;-76
2021/12/29 11:58:35;;;;;;;100.03;23.45;;;7.90;99.90;;;;;;5070638;28;20513;-76
2021/12/29 12:01:09;;;;;;;80.35;21.15;;;7.90;99.90;;;;;;5069942;28;20062;-76
2021/12/29 12:03:50;;;;;;;90.47;20.75;;;7.90;99.90;;;;;;5055095;28;20041;-76
2021/12/29 12:06:20;;;;;;;96.72;22.92;;;7.90;99.90;;;;;;5070713;28;20502;-76
2021/12/29 12:08:46;;;;;;;83.15;23.52;;;7.90;99.90;;;;;;5089234;28;20059;-76
2021/12/29 12:11:41;;;;;;;94.00;24.33;;;7.90;99.90;;;;;;5054690;28;20048;-76
2021/12/29 12:14:25;;;;;;;89.68;24.73;;;7.90;99.90;;;;;;5087703;28;20433;-76
2021/12/29 12:17:09;;;;;;;88.78;23.83;;;7.90;99.90;;;;;;5070477;28;20076;-76
2021/12/29 12:19:34;;;;;;;100.80;25.73;;;7.90;99.90;;;;;;5086205;28;20395;-76
2021/12/29 12:22:02;;;;;;;93.60;24.23;;;7.90;99.90;;;;;;5070999;28;20044;-76
2021/12/29 12:24:28;;;;;;;73.75;20.67;;;7.90;99.90;;;;;;5054066;28;20047;-76
2021/12/29 12:26:58;;;;;;;76.38;21.83;;;7.90;99.90;;;;;;5089268;28;20044;-76
2021/12/29 12:29:27;;;;;;;76.20;21.33;;;7.90;99.90;;;;;;5071108;28;20055;-76
2021/12/29 12:32:16;;;;;;;79.50;21.35;;;7.90;99.90;;;;;;5089194;28;20478;-76
2021/12/29 12:34:58;;;;;;;77.30;20.63;;;7.90;99.90;;;;;;5088941;28;20040;-76